createdAt,value
2018-09-28T00:02:04.104Z,8.23
2018-09-28T00:04:32.376Z,8.05
2018-09-28T00:07:00.816Z,7.45
2018-09-28T00:09:29.455Z,7.30
2018-09-28T00:11:57.977Z,6.28
2018-09-28T00:14:26.265Z,5.40
2018-09-28T00:16:54.517Z,6.22
2018-09-28T00:19:22.782Z,5.45
2018-09-28T00:21:51.025Z,5.45
2018-09-28T00:24:19.407Z,5.15
2018-09-28T00:26:47.714Z,4.87
2018-09-28T00:29:16.004Z,5.85
2018-09-28T00:31:44.254Z,5.78
2018-09-28T00:34:12.514Z,5.10
2018-09-28T00:36:40.746Z,4.75
2018-09-28T00:39:09.617Z,5.83
2018-09-28T00:41:37.883Z,5.80
2018-09-28T00:44:06.487Z,5.30
2018-09-28T00:46:34.765Z,6.05
2018-09-28T00:49:03.293Z,5.55
2018-09-28T00:51:31.813Z,6.05
2018-09-28T00:54:00.437Z,4.53
2018-09-28T00:56:29.097Z,4.65
2018-09-28T00:58:57.876Z,4.65
2018-09-28T01:01:26.587Z,5.70
2018-09-28T01:03:54.935Z,4.87
2018-09-28T01:06:23.165Z,3.10
2018-09-28T01:08:51.414Z,3.12
2018-09-28T01:11:19.668Z,2.58
2018-09-28T01:13:48.122Z,1.50
2018-09-28T01:16:16.460Z,2.70
2018-09-28T01:18:44.838Z,1.90
2018-09-28T01:21:13.221Z,2.25
2018-09-28T01:23:41.481Z,2.45
2018-09-28T01:26:09.814Z,1.72
2018-09-28T01:28:38.719Z,1.25
2018-09-28T01:31:07.537Z,1.50
2018-09-28T01:33:36.279Z,2.25
2018-09-28T01:36:04.543Z,1.70
2018-09-28T01:38:32.866Z,2.08
2018-09-28T01:41:01.202Z,1.35
2018-09-28T01:43:29.716Z,2.65
2018-09-28T01:45:58.487Z,1.57
2018-09-28T01:48:27.022Z,1.10
2018-09-28T01:50:55.417Z,1.70
2018-09-28T01:53:23.685Z,1.27
2018-09-28T01:55:51.975Z,2.35
2018-09-28T01:58:20.397Z,1.40
2018-09-28T02:00:48.842Z,2.77
2018-09-28T02:03:17.162Z,1.90
2018-09-28T02:05:45.717Z,1.98
2018-09-28T02:08:14.197Z,2.40
2018-09-28T02:10:42.570Z,1.75
2018-09-28T02:13:11.001Z,2.40
2018-09-28T02:15:39.398Z,1.02
2018-09-28T02:18:08.211Z,1.70
2018-09-28T02:20:36.565Z,1.67
2018-09-28T02:23:05.045Z,2.45
2018-09-28T02:25:33.530Z,2.58
2018-09-28T02:28:01.919Z,1.50
2018-09-28T02:30:30.236Z,1.32
2018-09-28T02:32:58.768Z,2.12
2018-09-28T02:35:27.136Z,2.17
2018-09-28T02:37:55.425Z,2.20
2018-09-28T02:40:23.728Z,2.62
2018-09-28T02:42:52.088Z,1.72
2018-09-28T02:45:20.701Z,2.12
2018-09-28T02:47:49.048Z,1.72
2018-09-28T02:50:17.353Z,2.27
2018-09-28T02:52:45.649Z,1.98
2018-09-28T02:55:13.894Z,2.62
2018-09-28T02:57:42.203Z,3.02
2018-09-28T03:00:10.742Z,2.10
2018-09-28T03:02:39.205Z,1.70
2018-09-28T03:05:08.059Z,2.27
2018-09-28T03:07:36.607Z,2.72
2018-09-28T03:10:04.846Z,3.22
2018-09-28T03:12:33.196Z,2.42
2018-09-28T03:15:01.668Z,2.33
2018-09-28T03:17:30.326Z,2.10
2018-09-28T03:19:59.082Z,2.35
2018-09-28T03:22:27.408Z,2.50
2018-09-28T03:24:55.701Z,2.75
2018-09-28T03:27:24.076Z,2.12
2018-09-28T03:29:52.554Z,2.35
2018-09-28T03:32:20.947Z,2.95
2018-09-28T03:34:49.407Z,2.83
2018-09-28T03:37:18.025Z,2.47
2018-09-28T03:39:46.577Z,2.98
2018-09-28T03:42:14.913Z,4.20
2018-09-28T03:44:43.232Z,2.67
2018-09-28T03:47:11.653Z,2.87
2018-09-28T03:49:40.506Z,2.30
2018-09-28T03:52:09.082Z,2.37
2018-09-28T03:54:37.588Z,1.92
2018-09-28T03:57:05.936Z,3.33
2018-09-28T03:59:34.412Z,2.90
2018-09-28T04:02:02.859Z,3.22
2018-09-28T04:04:31.474Z,3.00
2018-09-28T04:07:00.118Z,3.83
2018-09-28T04:09:28.425Z,2.90
2018-09-28T04:11:56.872Z,2.35
2018-09-28T04:14:25.628Z,3.33
2018-09-28T04:16:53.943Z,2.90
2018-09-28T04:19:22.269Z,3.25
2018-09-28T04:21:58.528Z,3.02
2018-09-28T04:24:32.533Z,3.50
2018-09-28T04:27:01.388Z,3.87
2018-09-28T04:29:29.754Z,2.98
2018-09-28T04:31:58.153Z,2.70
2018-09-28T04:34:26.756Z,3.45
2018-09-28T04:36:55.890Z,3.37
2018-09-28T04:39:29.081Z,3.92
2018-09-28T04:41:58.893Z,3.17
2018-09-28T04:44:27.884Z,3.20
2018-09-28T04:46:56.207Z,2.75
2018-09-28T04:49:24.591Z,3.37
2018-09-28T04:51:53.081Z,2.37
2018-09-28T04:54:21.776Z,3.55
2018-09-28T04:56:51.006Z,2.60
2018-09-28T04:59:23.002Z,2.92
2018-09-28T05:01:51.478Z,2.70
2018-09-28T05:04:20.537Z,3.40
2018-09-28T05:06:51.073Z,3.80
2018-09-28T05:09:19.865Z,3.37
2018-09-28T05:11:48.198Z,3.67
2018-09-28T05:14:16.545Z,3.92
2018-09-28T05:16:45.061Z,2.65
2018-09-28T05:19:14.050Z,2.85
2018-09-28T05:21:42.337Z,2.83
2018-09-28T05:24:10.713Z,3.72
2018-09-28T05:26:39.091Z,3.67
2018-09-28T05:29:07.424Z,3.77
2018-09-28T05:31:35.851Z,3.00
2018-09-28T05:34:04.198Z,2.77
2018-09-28T05:36:32.591Z,3.47
2018-09-28T05:39:00.845Z,3.00
2018-09-28T05:41:29.175Z,2.12
2018-09-28T05:43:57.505Z,4.00
2018-09-28T05:46:26.018Z,4.30
2018-09-28T05:48:54.296Z,3.25
2018-09-28T05:51:22.767Z,3.10
2018-09-28T05:53:51.321Z,3.25
2018-09-28T05:56:19.706Z,3.50
2018-09-28T05:58:53.337Z,3.50
2018-09-28T06:01:26.986Z,3.50
2018-09-28T06:04:03.162Z,2.33
2018-09-28T06:06:31.993Z,3.90
2018-09-28T06:09:00.588Z,2.75
2018-09-28T06:11:28.817Z,3.20
2018-09-28T06:13:57.013Z,4.97
2018-09-28T06:16:25.243Z,3.00
2018-09-28T06:18:53.554Z,3.17
2018-09-28T06:21:21.803Z,3.30
2018-09-28T06:23:50.300Z,3.85
2018-09-28T06:26:18.948Z,2.87
2018-09-28T06:28:47.203Z,4.12
2018-09-28T06:31:15.421Z,4.33
2018-09-28T06:33:46.257Z,3.95
2018-09-28T06:36:15.281Z,3.10
2018-09-28T06:38:43.530Z,3.62
2018-09-28T06:41:11.868Z,3.58
2018-09-28T06:43:40.164Z,2.37
2018-09-28T06:46:08.776Z,3.45
2018-09-28T06:48:37.016Z,4.70
2018-09-28T06:51:05.234Z,3.25
2018-09-28T06:53:33.468Z,3.17
2018-09-28T06:56:02.157Z,4.12
2018-09-28T06:58:30.428Z,2.70
2018-09-28T07:00:58.704Z,3.40
2018-09-28T07:03:26.976Z,3.17
2018-09-28T07:05:55.260Z,3.10
2018-09-28T07:08:23.416Z,2.45
2018-09-28T07:10:51.662Z,2.35
2018-09-28T07:13:19.876Z,3.75
2018-09-28T07:15:48.051Z,2.58
2018-09-28T07:18:16.417Z,3.50
2018-09-28T07:20:44.639Z,2.33
2018-09-28T07:23:13.065Z,3.25
2018-09-28T07:25:41.432Z,3.75
2018-09-28T07:28:09.776Z,2.80
2018-09-28T07:30:38.024Z,2.30
2018-09-28T07:33:06.715Z,2.45
2018-09-28T07:35:38.453Z,2.95
2018-09-28T07:38:06.732Z,2.90
2018-09-28T07:40:34.977Z,3.10
2018-09-28T07:43:03.286Z,2.17
2018-09-28T07:45:31.513Z,2.85
2018-09-28T07:47:59.858Z,2.60
2018-09-28T07:50:28.057Z,2.85
2018-09-28T07:52:56.248Z,2.75
2018-09-28T07:55:24.575Z,3.25
2018-09-28T07:57:52.786Z,1.65
2018-09-28T08:00:21.037Z,3.55
2018-09-28T08:02:49.256Z,2.05
2018-09-28T08:05:17.529Z,3.33
2018-09-28T08:07:45.776Z,2.45
2018-09-28T08:10:14.174Z,2.05
2018-09-28T08:12:42.390Z,2.65
2018-09-28T08:15:10.576Z,3.12
2018-09-28T08:17:38.805Z,2.12
2018-09-28T08:20:07.040Z,3.27
2018-09-28T08:22:35.256Z,2.55
2018-09-28T08:25:03.633Z,3.15
2018-09-28T08:27:31.871Z,2.58
2018-09-28T08:30:00.118Z,3.12
2018-09-28T08:32:28.342Z,2.25
2018-09-28T08:34:56.591Z,2.98
2018-09-28T08:37:24.885Z,2.30
2018-09-28T08:39:53.138Z,3.40
2018-09-28T08:42:21.544Z,2.45
2018-09-28T08:44:49.764Z,2.70
2018-09-28T08:47:18.067Z,2.62
2018-09-28T08:49:46.316Z,2.98
2018-09-28T08:52:14.480Z,1.80
2018-09-28T08:54:42.769Z,1.70
2018-09-28T08:57:10.991Z,2.10
2018-09-28T08:59:39.265Z,2.85
2018-09-28T09:02:07.624Z,2.15
2018-09-28T09:04:35.898Z,2.40
2018-09-28T09:07:04.178Z,2.58
2018-09-28T09:09:32.393Z,2.60
2018-09-28T09:12:00.590Z,2.47
2018-09-28T09:14:28.888Z,2.75
2018-09-28T09:16:57.086Z,1.95
2018-09-28T09:19:25.281Z,1.80
2018-09-28T09:21:53.572Z,2.10
2018-09-28T09:24:21.737Z,2.20
2018-09-28T09:26:49.957Z,1.57
2018-09-28T09:29:18.141Z,1.87
2018-09-28T09:31:46.335Z,1.85
2018-09-28T09:34:14.527Z,2.25
2018-09-28T09:36:42.761Z,2.50
2018-09-28T09:39:11.666Z,1.67
2018-09-28T09:41:39.876Z,2.67
2018-09-28T09:44:08.100Z,1.87
2018-09-28T09:46:36.337Z,2.10
2018-09-28T09:49:04.664Z,2.45
2018-09-28T09:51:33.012Z,1.52
2018-09-28T09:54:01.327Z,2.00
2018-09-28T09:56:29.612Z,1.77
2018-09-28T09:58:57.803Z,1.65
2018-09-28T10:01:31.172Z,2.75
2018-09-28T10:04:03.632Z,2.37
2018-09-28T10:06:31.806Z,1.67
2018-09-28T10:08:59.978Z,1.77
2018-09-28T10:11:28.169Z,2.15
2018-09-28T10:13:56.409Z,1.82
2018-09-28T10:16:24.623Z,2.22
2018-09-28T10:18:52.833Z,2.22
2018-09-28T10:21:20.969Z,1.65
2018-09-28T10:23:49.148Z,1.98
2018-09-28T10:26:17.294Z,1.75
2018-09-28T10:28:45.513Z,2.65
2018-09-28T10:31:13.689Z,2.33
2018-09-28T10:33:43.461Z,2.58
2018-09-28T10:36:11.814Z,1.98
2018-09-28T10:38:40.005Z,2.40
2018-09-28T10:41:08.261Z,2.12
2018-09-28T10:43:36.449Z,1.90
2018-09-28T10:46:04.647Z,3.00
2018-09-28T10:48:32.819Z,2.55
2018-09-28T10:51:01.000Z,2.85
2018-09-28T10:53:29.196Z,2.12
2018-09-28T10:55:57.429Z,2.00
2018-09-28T10:58:25.737Z,2.55
2018-09-28T11:00:54.077Z,2.30
2018-09-28T11:03:22.317Z,2.52
2018-09-28T11:05:50.589Z,2.55
2018-09-28T11:08:18.923Z,2.50
2018-09-28T11:10:47.226Z,2.50
2018-09-28T11:13:15.405Z,2.80
2018-09-28T11:15:43.805Z,1.70
2018-09-28T11:18:11.893Z,2.40
2018-09-28T11:20:40.117Z,2.98
2018-09-28T11:23:08.329Z,1.72
2018-09-28T11:25:36.665Z,2.30
2018-09-28T11:28:04.869Z,2.30
2018-09-28T11:30:34.151Z,2.55
2018-09-28T11:33:02.345Z,2.35
2018-09-28T11:35:30.568Z,2.60
2018-09-28T11:37:58.735Z,1.95
2018-09-28T11:40:26.942Z,2.00
2018-09-28T11:42:55.181Z,2.40
2018-09-28T11:45:23.387Z,2.08
2018-09-28T11:47:51.553Z,1.45
2018-09-28T11:50:19.756Z,1.55
2018-09-28T11:52:47.963Z,2.08
2018-09-28T11:55:16.209Z,2.58
2018-09-28T11:57:44.443Z,2.45
2018-09-28T12:00:12.610Z,1.70
2018-09-28T12:02:40.827Z,1.90
2018-09-28T12:05:09.012Z,1.90
2018-09-28T12:07:37.208Z,1.80
2018-09-28T12:10:05.528Z,2.40
2018-09-28T12:12:33.796Z,2.25
2018-09-28T12:15:02.012Z,3.37
2018-09-28T12:17:30.240Z,2.60
2018-09-28T12:19:58.601Z,1.98
2018-09-28T12:22:26.794Z,1.65
2018-09-28T12:24:55.217Z,1.98
2018-09-28T12:27:23.439Z,1.47
2018-09-28T12:29:51.657Z,1.47
2018-09-28T12:32:19.920Z,3.05
2018-09-28T12:34:48.135Z,1.25
2018-09-28T12:37:16.307Z,1.50
2018-09-28T12:39:44.757Z,1.80
2018-09-28T12:42:12.973Z,1.30
2018-09-28T12:44:41.246Z,1.60
2018-09-28T12:47:09.488Z,1.40
2018-09-28T12:49:37.701Z,1.80
2018-09-28T12:52:05.964Z,1.22
2018-09-28T12:54:34.230Z,1.70
2018-09-28T12:57:02.722Z,1.70
2018-09-28T12:59:31.048Z,1.45
2018-09-28T13:01:59.255Z,1.80
2018-09-28T13:04:27.467Z,1.40
2018-09-28T13:06:55.699Z,1.98
2018-09-28T13:09:23.916Z,1.55
2018-09-28T13:11:52.135Z,2.30
2018-09-28T13:14:20.453Z,1.60
2018-09-28T13:16:48.628Z,1.62
2018-09-28T13:19:16.824Z,1.70
2018-09-28T13:21:45.229Z,1.45
2018-09-28T13:24:16.478Z,1.60
2018-09-28T13:26:45.088Z,1.45
2018-09-28T13:29:15.688Z,1.80
2018-09-28T13:31:44.767Z,2.22
2018-09-28T13:34:13.335Z,2.05
2018-09-28T13:36:42.133Z,1.47
2018-09-28T13:39:10.344Z,2.45
2018-09-28T13:41:38.818Z,1.70
2018-09-28T13:44:08.817Z,1.40
2018-09-28T13:46:37.055Z,1.98
2018-09-28T13:49:05.188Z,1.75
2018-09-28T13:51:33.419Z,2.10
2018-09-28T13:54:01.732Z,2.08
2018-09-28T13:56:30.235Z,2.22
2018-09-28T13:58:58.542Z,2.37
2018-09-28T14:01:26.700Z,1.65
2018-09-28T14:03:54.977Z,1.75
2018-09-28T14:06:23.319Z,1.60
2018-09-28T14:08:51.643Z,2.45
2018-09-28T14:11:19.791Z,2.27
2018-09-28T14:13:48.112Z,1.95
2018-09-28T14:16:16.394Z,1.70
2018-09-28T14:18:44.726Z,1.98
2018-09-28T14:21:13.043Z,2.08
2018-09-28T14:23:41.274Z,1.57
2018-09-28T14:26:09.637Z,1.85
2018-09-28T14:28:37.948Z,1.55
2018-09-28T14:31:06.143Z,1.60
2018-09-28T14:33:34.494Z,1.75
2018-09-28T14:36:03.113Z,2.17
2018-09-28T14:38:32.536Z,1.62
2018-09-28T14:41:00.761Z,2.17
2018-09-28T14:43:29.772Z,1.35
2018-09-28T14:45:58.054Z,1.35
2018-09-28T14:48:26.993Z,1.50
2018-09-28T14:50:55.224Z,2.83
2018-09-28T14:53:23.648Z,1.65
2018-09-28T14:55:51.860Z,1.50
2018-09-28T14:58:20.121Z,1.80
2018-09-28T15:00:48.435Z,2.35
2018-09-28T15:03:16.632Z,1.85
2018-09-28T15:05:44.948Z,1.67
2018-09-28T15:08:13.241Z,2.05
2018-09-28T15:10:41.664Z,1.90
2018-09-28T15:13:09.937Z,2.15
2018-09-28T15:15:38.231Z,1.27
2018-09-28T15:18:06.740Z,1.50
2018-09-28T15:20:35.088Z,2.30
2018-09-28T15:23:03.292Z,1.30
2018-09-28T15:25:31.646Z,2.25
2018-09-28T15:28:00.017Z,2.22
2018-09-28T15:30:28.289Z,3.00
2018-09-28T15:32:56.667Z,2.08
2018-09-28T15:35:25.200Z,1.87
2018-09-28T15:37:53.426Z,1.80
2018-09-28T15:40:23.062Z,2.12
2018-09-28T15:42:51.346Z,1.80
2018-09-28T15:45:19.706Z,1.35
2018-09-28T15:47:48.228Z,2.20
2018-09-28T15:50:16.460Z,1.87
2018-09-28T15:52:44.780Z,1.30
2018-09-28T15:55:13.057Z,1.95
2018-09-28T15:57:41.372Z,2.92
2018-09-28T16:00:09.705Z,2.17
2018-09-28T16:02:37.908Z,2.02
2018-09-28T16:05:06.218Z,2.02
2018-09-28T16:07:34.576Z,1.87
2018-09-28T16:10:02.810Z,1.30
2018-09-28T16:12:31.058Z,1.62
2018-09-28T16:14:59.861Z,1.47
2018-09-28T16:17:28.127Z,2.12
2018-09-28T16:19:56.383Z,2.30
2018-09-28T16:22:24.742Z,1.87
2018-09-28T16:24:53.064Z,2.40
2018-09-28T16:27:21.297Z,1.72
2018-09-28T16:29:49.657Z,1.92
2018-09-28T16:32:17.928Z,1.98
2018-09-28T16:34:46.270Z,1.92
2018-09-28T16:37:14.627Z,1.98
2018-09-28T16:39:42.988Z,1.98
2018-09-28T16:42:11.464Z,2.25
2018-09-28T16:44:39.845Z,1.62
2018-09-28T16:47:08.097Z,2.25
2018-09-28T16:49:36.464Z,2.40
2018-09-28T16:52:04.789Z,1.75
2018-09-28T16:54:33.088Z,1.82
2018-09-28T16:57:01.337Z,2.22
2018-09-28T16:59:29.632Z,2.80
2018-09-28T17:01:57.948Z,2.02
2018-09-28T17:04:26.237Z,1.90
2018-09-28T17:06:54.485Z,1.90
2018-09-28T17:09:22.934Z,2.25
2018-09-28T17:11:51.122Z,2.17
2018-09-28T17:14:19.413Z,2.25
2018-09-28T17:16:47.721Z,1.95
2018-09-28T17:19:16.539Z,2.45
2018-09-28T17:21:45.059Z,1.82
2018-09-28T17:24:13.353Z,2.77
2018-09-28T17:26:41.702Z,2.40
2018-09-28T17:29:10.032Z,1.50
2018-09-28T17:31:38.349Z,2.62
2018-09-28T17:34:06.686Z,1.42
2018-09-28T17:36:35.122Z,2.22
2018-09-28T17:39:03.493Z,2.15
2018-09-28T17:41:31.808Z,2.37
2018-09-28T17:44:00.014Z,2.37
2018-09-28T17:46:28.463Z,2.10
2018-09-28T17:48:56.737Z,2.42
2018-09-28T17:51:25.089Z,1.77
2018-09-28T17:53:53.391Z,1.98
2018-09-28T17:56:21.872Z,2.12
2018-09-28T17:58:51.194Z,3.00
2018-09-28T18:01:19.644Z,1.80
2018-09-28T18:03:48.035Z,1.87
2018-09-28T18:06:17.039Z,2.60
2018-09-28T18:08:45.301Z,2.45
2018-09-28T18:11:14.453Z,1.90
2018-09-28T18:13:42.746Z,1.87
2018-09-28T18:16:11.045Z,2.15
2018-09-28T18:18:39.289Z,1.65
2018-09-28T18:21:07.479Z,2.33
2018-09-28T18:23:35.728Z,1.75
2018-09-28T18:26:03.980Z,1.90
2018-09-28T18:28:32.197Z,2.35
2018-09-28T18:31:00.496Z,2.15
2018-09-28T18:33:28.815Z,1.87
2018-09-28T18:35:57.086Z,1.80
2018-09-28T18:38:25.309Z,2.52
2018-09-28T18:40:53.626Z,2.85
2018-09-28T18:43:21.904Z,2.33
2018-09-28T18:45:50.114Z,2.60
2018-09-28T18:48:18.510Z,2.10
2018-09-28T18:50:46.832Z,2.83
2018-09-28T18:53:15.064Z,2.47
2018-09-28T18:55:43.333Z,1.77
2018-09-28T18:58:11.620Z,2.35
2018-09-28T19:00:39.804Z,1.92
2018-09-28T19:03:08.035Z,2.67
2018-09-28T19:05:36.316Z,1.82
2018-09-28T19:08:04.685Z,1.72
2018-09-28T19:10:33.004Z,3.00
2018-09-28T19:13:01.762Z,2.05
2018-09-28T19:15:31.303Z,2.12
2018-09-28T19:17:59.833Z,1.80
2018-09-28T19:20:28.165Z,2.35
2018-09-28T19:22:56.430Z,2.83
2018-09-28T19:25:24.767Z,2.90
2018-09-28T19:27:54.272Z,1.72
2018-09-28T19:30:22.860Z,2.12
2018-09-28T19:32:51.290Z,2.55
2018-09-28T19:35:19.733Z,1.95
2018-09-28T19:37:48.272Z,2.37
2018-09-28T19:40:17.590Z,2.45
2018-09-28T19:42:46.125Z,2.42
2018-09-28T19:45:14.643Z,2.30
2018-09-28T19:47:42.974Z,2.15
2018-09-28T19:50:11.366Z,1.52
2018-09-28T19:52:39.783Z,2.58
2018-09-28T19:57:45.265Z,1.85
2018-09-28T20:00:13.793Z,2.25
2018-09-28T20:02:42.140Z,2.12
2018-09-28T20:05:10.503Z,2.15
2018-09-28T20:07:38.820Z,3.20
2018-09-28T20:10:07.189Z,3.27
2018-09-28T20:12:35.451Z,1.65
2018-09-28T20:15:03.879Z,2.08
2018-09-28T20:17:32.124Z,2.40
2018-09-28T20:20:00.410Z,2.05
2018-09-28T20:22:29.089Z,2.17
2018-09-28T20:24:57.629Z,2.10
2018-09-28T20:27:26.025Z,2.40
2018-09-28T20:29:54.328Z,2.70
2018-09-28T20:32:22.554Z,2.12
2018-09-28T20:34:50.881Z,2.60
2018-09-28T20:37:19.210Z,3.00
2018-09-28T20:39:47.451Z,2.45
2018-09-28T20:42:15.704Z,2.25
2018-09-28T20:44:44.241Z,1.92
2018-09-28T20:47:12.511Z,2.05
2018-09-28T20:49:40.776Z,2.17
2018-09-28T20:52:09.080Z,2.17
2018-09-28T20:54:37.337Z,2.20
2018-09-28T20:57:06.940Z,2.20
2018-09-28T20:59:35.182Z,3.05
2018-09-28T21:02:03.410Z,2.35
2018-09-28T21:04:31.681Z,2.70
2018-09-28T21:07:00.062Z,2.42
2018-09-28T21:09:29.563Z,2.55
2018-09-28T21:11:58.149Z,2.83
2018-09-28T21:14:26.523Z,3.33
2018-09-28T21:16:54.953Z,2.60
2018-09-28T21:19:23.242Z,3.67
2018-09-28T21:21:51.849Z,3.33
2018-09-28T21:24:20.572Z,3.17
2018-09-28T21:26:49.042Z,2.00
2018-09-28T21:29:17.306Z,2.08
2018-09-28T21:31:45.691Z,2.75
2018-09-28T21:34:13.947Z,3.10
2018-09-28T21:36:42.217Z,2.70
2018-09-28T21:39:11.434Z,2.95
2018-09-28T21:41:40.145Z,2.40
2018-09-28T21:44:09.041Z,3.02
2018-09-28T21:46:37.445Z,3.10
2018-09-28T21:49:05.804Z,2.12
2018-09-28T21:51:34.219Z,2.08
2018-09-28T21:54:02.961Z,3.00
2018-09-28T21:56:31.282Z,2.55
2018-09-28T21:58:59.772Z,2.40
2018-09-28T22:01:30.209Z,3.10
2018-09-28T22:03:58.495Z,2.42
2018-09-28T22:06:27.083Z,2.12
2018-09-28T22:08:55.484Z,2.02
2018-09-28T22:11:23.815Z,2.72
2018-09-28T22:13:52.085Z,2.52
2018-09-28T22:16:21.132Z,3.67
2018-09-28T22:18:49.456Z,3.47
2018-09-28T22:21:18.218Z,3.40
2018-09-28T22:23:46.485Z,3.62
2018-09-28T22:26:14.676Z,2.42
2018-09-28T22:28:42.873Z,3.17
2018-09-28T22:31:15.475Z,3.17
2018-09-28T22:33:43.788Z,2.65
2018-09-28T22:36:12.037Z,3.33
2018-09-28T22:38:40.255Z,3.02
2018-09-28T22:41:08.514Z,2.75
2018-09-28T22:43:36.782Z,2.80
2018-09-28T22:46:04.972Z,3.33
2018-09-28T22:48:33.230Z,2.50
2018-09-28T22:51:01.491Z,3.30
2018-09-28T22:53:29.722Z,2.95
2018-09-28T22:55:58.060Z,3.65
2018-09-28T22:58:27.297Z,2.70
2018-09-28T23:00:55.607Z,3.45
2018-09-28T23:03:25.187Z,3.08
2018-09-28T23:05:53.963Z,3.50
2018-09-28T23:08:22.696Z,2.15
2018-09-28T23:10:51.184Z,2.60
2018-09-28T23:13:19.472Z,4.42
2018-09-28T23:15:47.718Z,3.12
2018-09-28T23:18:16.312Z,3.22
2018-09-28T23:20:44.519Z,2.95
2018-09-28T23:23:12.819Z,3.00
2018-09-28T23:25:41.095Z,3.40
2018-09-28T23:28:09.272Z,2.92
2018-09-28T23:30:37.428Z,2.40
2018-09-28T23:33:05.709Z,3.10
2018-09-28T23:35:33.993Z,3.20
2018-09-28T23:38:02.205Z,3.10
2018-09-28T23:40:30.406Z,3.98
2018-09-28T23:42:58.656Z,4.58
2018-09-28T23:45:26.818Z,4.72
2018-09-28T23:47:55.002Z,2.80
2018-09-28T23:50:23.272Z,3.33
2018-09-28T23:52:51.657Z,2.75
2018-09-28T23:55:19.801Z,2.80
2018-09-28T23:57:48.075Z,3.37
